Terminal Aerodrome Forecast
Issued by NWS

Home | Current Version | Previous Version | Text Only | Print | Product List | Glossary On
Versions: 1 2 3 4 5 6 7 8 9 10 11 12 13 14 15 16
695
FTUS43 KLSX 081132
TAFSUS
TAF
KSUS 081132Z 0812/0912 29018G28KT 6SM -SN OVC035
      TEMPO 0812/0816 3SM -SN BKN020
     FM082300 31018G28KT P6SM -SN OVC025
     FM090600 31015G25KT P6SM BKN030=

USA.gov is the U.S. government's official web portal to all federal, state and local government web resources and services.